Terminal Aerodrome Forecast
Issued by NWS Rapid City, SD

Home | Current Version | Previous Version | Graphics & Text | Print | Product List | Glossary On
Versions: 1 2 3 4 5 6 7 8 9 10 11 12 13 14 15 16
000
FTUS43 KUNR 190520
TAFRAP
TAF
KRAP 190520Z 1906/2006 18008KT P6SM BKN200 WS020/20050KT
     FM191300 22010KT P6SM BKN200
     FM191800 01010KT P6SM BKN120
     FM200000 34015G25KT P6SM -SHRA BKN035=

USA.gov is the U.S. government's official web portal to all federal, state and local government web resources and services.